sensor_id;sensor_type;location;lat;lon;timestamp;temperature;humidity
8539;DHT22;4307;53.868;11.680;2022-08-01T00:02:11;19.00;99.90
8539;DHT22;4307;53.868;11.680;2022-08-01T00:04:37;19.00;99.90
8539;DHT22;4307;53.868;11.680;2022-08-01T00:07:04;18.90;99.90
8539;DHT22;4307;53.868;11.680;2022-08-01T00:09:32;18.90;99.90
8539;DHT22;4307;53.868;11.680;2022-08-01T00:11:59;18.90;99.90
8539;DHT22;4307;53.868;11.680;2022-08-01T00:14:26;18.80;99.90
8539;DHT22;4307;53.868;11.680;2022-08-01T00:16:53;18.80;99.90
8539;DHT22;4307;53.868;11.680;2022-08-01T00:19:19;18.70;99.90
8539;DHT22;4307;53.868;11.680;2022-08-01T00:21:46;18.70;99.90
8539;DHT22;4307;53.868;11.680;2022-08-01T00:24:13;18.70;99.90
8539;DHT22;4307;53.868;11.680;2022-08-01T00:26:41;18.70;99.90
8539;DHT22;4307;53.868;11.680;2022-08-01T00:29:07;18.70;99.90
8539;DHT22;4307;53.868;11.680;2022-08-01T00:31:34;18.70;99.90
8539;DHT22;4307;53.868;11.680;2022-08-01T00:34:00;18.70;99.90
8539;DHT22;4307;53.868;11.680;2022-08-01T00:36:27;18.70;99.90
8539;DHT22;4307;53.868;11.680;2022-08-01T00:38:54;18.60;99.90
8539;DHT22;4307;53.868;11.680;2022-08-01T00:41:20;18.60;99.90
8539;DHT22;4307;53.868;11.680;2022-08-01T00:43:48;18.70;99.90
8539;DHT22;4307;53.868;11.680;2022-08-01T00:46:15;18.60;99.90
8539;DHT22;4307;53.868;11.680;2022-08-01T00:48:42;18.60;99.90
8539;DHT22;4307;53.868;11.680;2022-08-01T00:51:08;18.60;99.90
8539;DHT22;4307;53.868;11.680;2022-08-01T00:53:35;18.70;99.90
8539;DHT22;4307;53.868;11.680;2022-08-01T00:56:03;18.70;99.90
8539;DHT22;4307;53.868;11.680;2022-08-01T00:58:29;18.70;99.90
8539;DHT22;4307;53.868;11.680;2022-08-01T01:00:59;18.70;99.90
8539;DHT22;4307;53.868;11.680;2022-08-01T01:03:26;18.70;99.90
8539;DHT22;4307;53.868;11.680;2022-08-01T01:05:59;18.70;99.90
8539;DHT22;4307;53.868;11.680;2022-08-01T01:08:32;18.80;99.90
8539;DHT22;4307;53.868;11.680;2022-08-01T01:11:04;18.80;99.90
8539;DHT22;4307;53.868;11.680;2022-08-01T01:13:38;18.80;99.90
8539;DHT22;4307;53.868;11.680;2022-08-01T01:16:10;18.90;99.90
8539;DHT22;4307;53.868;11.680;2022-08-01T01:18:42;18.90;99.90
8539;DHT22;4307;53.868;11.680;2022-08-01T01:21:22;19.00;99.90
8539;DHT22;4307;53.868;11.680;2022-08-01T01:23:57;19.00;99.90
8539;DHT22;4307;53.868;11.680;2022-08-01T01:26:38;19.00;99.90
8539;DHT22;4307;53.868;11.680;2022-08-01T01:29:13;19.00;99.90
8539;DHT22;4307;53.868;11.680;2022-08-01T01:31:44;19.00;99.90
8539;DHT22;4307;53.868;11.680;2022-08-01T01:34:13;19.00;99.90
8539;DHT22;4307;53.868;11.680;2022-08-01T01:36:43;19.00;99.90
8539;DHT22;4307;53.868;11.680;2022-08-01T01:39:11;19.10;99.90
8539;DHT22;4307;53.868;11.680;2022-08-01T01:41:40;19.10;99.90
8539;DHT22;4307;53.868;11.680;2022-08-01T01:44:09;19.10;99.90
8539;DHT22;4307;53.868;11.680;2022-08-01T01:46:37;19.10;99.90
8539;DHT22;4307;53.868;11.680;2022-08-01T01:49:05;19.10;99.90
8539;DHT22;4307;53.868;11.680;2022-08-01T01:51:35;19.10;99.90
8539;DHT22;4307;53.868;11.680;2022-08-01T01:54:04;19.20;99.90
8539;DHT22;4307;53.868;11.680;2022-08-01T01:56:33;19.20;99.90
8539;DHT22;4307;53.868;11.680;2022-08-01T01:59:18;19.10;99.90
8539;DHT22;4307;53.868;11.680;2022-08-01T02:01:47;19.20;99.90
8539;DHT22;4307;53.868;11.680;2022-08-01T02:04:14;19.10;99.90
8539;DHT22;4307;53.868;11.680;2022-08-01T02:06:42;19.10;99.90
8539;DHT22;4307;53.868;11.680;2022-08-01T02:09:10;19.10;99.90
8539;DHT22;4307;53.868;11.680;2022-08-01T02:11:38;19.10;99.90
8539;DHT22;4307;53.868;11.680;2022-08-01T02:14:07;19.10;99.90
8539;DHT22;4307;53.868;11.680;2022-08-01T02:16:37;19.00;99.90
8539;DHT22;4307;53.868;11.680;2022-08-01T02:19:06;19.00;99.90
8539;DHT22;4307;53.868;11.680;2022-08-01T02:21:34;19.10;99.90
8539;DHT22;4307;53.868;11.680;2022-08-01T02:24:09;19.10;99.90
8539;DHT22;4307;53.868;11.680;2022-08-01T02:26:39;19.20;99.90
8539;DHT22;4307;53.868;11.680;2022-08-01T02:29:10;19.20;99.90
8539;DHT22;4307;53.868;11.680;2022-08-01T02:31:41;19.20;99.90
8539;DHT22;4307;53.868;11.680;2022-08-01T02:34:16;19.20;99.90
8539;DHT22;4307;53.868;11.680;2022-08-01T02:36:44;19.30;99.90
8539;DHT22;4307;53.868;11.680;2022-08-01T02:39:14;19.20;99.90
8539;DHT22;4307;53.868;11.680;2022-08-01T02:41:46;19.20;99.90
8539;DHT22;4307;53.868;11.680;2022-08-01T02:44:23;19.20;99.90
8539;DHT22;4307;53.868;11.680;2022-08-01T02:46:52;19.20;99.90
8539;DHT22;4307;53.868;11.680;2022-08-01T02:49:21;19.10;99.90
8539;DHT22;4307;53.868;11.680;2022-08-01T02:51:51;19.10;99.90
8539;DHT22;4307;53.868;11.680;2022-08-01T02:54:21;19.10;99.90
8539;DHT22;4307;53.868;11.680;2022-08-01T02:56:50;19.20;99.90
8539;DHT22;4307;53.868;11.680;2022-08-01T02:59:19;19.20;99.90
8539;DHT22;4307;53.868;11.680;2022-08-01T03:01:52;19.30;99.90
8539;DHT22;4307;53.868;11.680;2022-08-01T03:04:20;19.30;99.90
8539;DHT22;4307;53.868;11.680;2022-08-01T03:06:48;19.30;99.90
8539;DHT22;4307;53.868;11.680;2022-08-01T03:09:15;19.30;99.90
8539;DHT22;4307;53.868;11.680;2022-08-01T03:11:44;19.30;99.90
8539;DHT22;4307;53.868;11.680;2022-08-01T03:14:12;19.30;99.90
8539;DHT22;4307;53.868;11.680;2022-08-01T03:16:42;19.20;99.90
8539;DHT22;4307;53.868;11.680;2022-08-01T03:19:11;19.30;99.90
8539;DHT22;4307;53.868;11.680;2022-08-01T03:21:40;19.20;99.90
8539;DHT22;4307;53.868;11.680;2022-08-01T03:24:10;19.20;99.90
8539;DHT22;4307;53.868;11.680;2022-08-01T03:26:38;19.20;99.90
8539;DHT22;4307;53.868;11.680;2022-08-01T03:29:09;19.20;99.90
8539;DHT22;4307;53.868;11.680;2022-08-01T03:31:38;19.30;99.90
8539;DHT22;4307;53.868;11.680;2022-08-01T03:34:08;19.30;99.90
8539;DHT22;4307;53.868;11.680;2022-08-01T03:36:42;19.30;99.90
8539;DHT22;4307;53.868;11.680;2022-08-01T03:39:11;19.30;99.90
8539;DHT22;4307;53.868;11.680;2022-08-01T03:41:41;19.30;99.90
8539;DHT22;4307;53.868;11.680;2022-08-01T03:44:13;19.20;99.90
8539;DHT22;4307;53.868;11.680;2022-08-01T03:46:43;19.20;99.90
8539;DHT22;4307;53.868;11.680;2022-08-01T03:49:14;19.30;99.90
8539;DHT22;4307;53.868;11.680;2022-08-01T03:51:44;19.30;99.90
8539;DHT22;4307;53.868;11.680;2022-08-01T03:54:14;19.30;99.90
8539;DHT22;4307;53.868;11.680;2022-08-01T03:56:42;19.30;99.90
8539;DHT22;4307;53.868;11.680;2022-08-01T03:59:10;19.30;99.90
8539;DHT22;4307;53.868;11.680;2022-08-01T04:01:37;19.30;99.90
8539;DHT22;4307;53.868;11.680;2022-08-01T04:04:04;19.30;99.90
8539;DHT22;4307;53.868;11.680;2022-08-01T04:06:31;19.30;99.90
8539;DHT22;4307;53.868;11.680;2022-08-01T04:08:59;19.30;99.90
8539;DHT22;4307;53.868;11.680;2022-08-01T04:11:27;19.30;99.90
8539;DHT22;4307;53.868;11.680;2022-08-01T04:13:55;19.40;99.90
8539;DHT22;4307;53.868;11.680;2022-08-01T04:16:22;19.30;99.90
8539;DHT22;4307;53.868;11.680;2022-08-01T04:18:49;19.30;99.90
8539;DHT22;4307;53.868;11.680;2022-08-01T04:21:18;19.40;99.90
8539;DHT22;4307;53.868;11.680;2022-08-01T04:23:47;19.40;99.90
8539;DHT22;4307;53.868;11.680;2022-08-01T04:26:17;19.40;99.90
8539;DHT22;4307;53.868;11.680;2022-08-01T04:28:45;19.40;99.90
8539;DHT22;4307;53.868;11.680;2022-08-01T04:31:14;19.40;99.90
8539;DHT22;4307;53.868;11.680;2022-08-01T04:33:44;19.50;99.90
8539;DHT22;4307;53.868;11.680;2022-08-01T04:36:13;19.50;99.90
8539;DHT22;4307;53.868;11.680;2022-08-01T04:38:42;19.50;99.90
8539;DHT22;4307;53.868;11.680;2022-08-01T04:41:12;19.50;99.90
8539;DHT22;4307;53.868;11.680;2022-08-01T04:43:41;19.50;99.90
8539;DHT22;4307;53.868;11.680;2022-08-01T04:46:08;19.50;99.90
8539;DHT22;4307;53.868;11.680;2022-08-01T04:48:38;19.50;99.90
8539;DHT22;4307;53.868;11.680;2022-08-01T04:51:11;19.60;99.90
8539;DHT22;4307;53.868;11.680;2022-08-01T04:53:40;19.60;99.90
8539;DHT22;4307;53.868;11.680;2022-08-01T04:56:07;19.60;99.90
8539;DHT22;4307;53.868;11.680;2022-08-01T04:58:34;19.60;99.90
8539;DHT22;4307;53.868;11.680;2022-08-01T05:01:02;19.70;99.90
8539;DHT22;4307;53.868;11.680;2022-08-01T05:03:28;19.70;99.90
8539;DHT22;4307;53.868;11.680;2022-08-01T05:05:55;19.70;99.90
8539;DHT22;4307;53.868;11.680;2022-08-01T05:08:22;19.80;99.90
8539;DHT22;4307;53.868;11.680;2022-08-01T05:10:48;19.80;99.90
8539;DHT22;4307;53.868;11.680;2022-08-01T05:13:15;19.80;99.90
8539;DHT22;4307;53.868;11.680;2022-08-01T05:15:42;19.90;99.90
8539;DHT22;4307;53.868;11.680;2022-08-01T05:18:10;19.90;99.90
8539;DHT22;4307;53.868;11.680;2022-08-01T05:20:37;19.90;99.90
8539;DHT22;4307;53.868;11.680;2022-08-01T05:23:03;20.00;99.90
8539;DHT22;4307;53.868;11.680;2022-08-01T05:25:30;20.00;99.90
8539;DHT22;4307;53.868;11.680;2022-08-01T05:27:57;20.10;99.90
8539;DHT22;4307;53.868;11.680;2022-08-01T05:30:24;20.10;99.90
8539;DHT22;4307;53.868;11.680;2022-08-01T05:32:51;20.10;99.90
8539;DHT22;4307;53.868;11.680;2022-08-01T05:35:19;20.10;99.90
8539;DHT22;4307;53.868;11.680;2022-08-01T05:37:46;20.10;99.90
8539;DHT22;4307;53.868;11.680;2022-08-01T05:40:12;20.10;99.90
8539;DHT22;4307;53.868;11.680;2022-08-01T05:42:39;20.10;99.90
8539;DHT22;4307;53.868;11.680;2022-08-01T05:45:06;20.10;99.90
8539;DHT22;4307;53.868;11.680;2022-08-01T05:47:33;20.10;99.90
8539;DHT22;4307;53.868;11.680;2022-08-01T05:50:00;20.20;99.90
8539;DHT22;4307;53.868;11.680;2022-08-01T05:52:28;20.20;99.90
8539;DHT22;4307;53.868;11.680;2022-08-01T05:54:56;20.20;99.90
8539;DHT22;4307;53.868;11.680;2022-08-01T05:57:22;20.20;99.90
8539;DHT22;4307;53.868;11.680;2022-08-01T05:59:49;20.20;99.90
8539;DHT22;4307;53.868;11.680;2022-08-01T06:02:16;20.20;99.90
8539;DHT22;4307;53.868;11.680;2022-08-01T06:04:42;20.20;99.90
8539;DHT22;4307;53.868;11.680;2022-08-01T06:07:09;20.20;99.90
8539;DHT22;4307;53.868;11.680;2022-08-01T06:09:37;20.20;99.90
8539;DHT22;4307;53.868;11.680;2022-08-01T06:12:04;20.20;99.90
8539;DHT22;4307;53.868;11.680;2022-08-01T06:14:33;20.20;99.90
8539;DHT22;4307;53.868;11.680;2022-08-01T06:16:59;20.20;99.90
8539;DHT22;4307;53.868;11.680;2022-08-01T06:19:26;20.30;99.90
8539;DHT22;4307;53.868;11.680;2022-08-01T06:21:53;20.30;99.90
8539;DHT22;4307;53.868;11.680;2022-08-01T06:24:19;20.30;99.90
8539;DHT22;4307;53.868;11.680;2022-08-01T06:26:49;20.30;99.90
8539;DHT22;4307;53.868;11.680;2022-08-01T06:29:16;20.20;99.90
8539;DHT22;4307;53.868;11.680;2022-08-01T06:31:43;20.20;99.90
8539;DHT22;4307;53.868;11.680;2022-08-01T06:34:09;20.20;99.90
8539;DHT22;4307;53.868;11.680;2022-08-01T06:36:36;20.20;99.90
8539;DHT22;4307;53.868;11.680;2022-08-01T06:39:03;20.20;99.90
8539;DHT22;4307;53.868;11.680;2022-08-01T06:41:30;20.20;99.90
8539;DHT22;4307;53.868;11.680;2022-08-01T06:43:57;20.10;99.90
8539;DHT22;4307;53.868;11.680;2022-08-01T06:46:27;20.10;99.90
8539;DHT22;4307;53.868;11.680;2022-08-01T06:48:54;20.10;99.90
8539;DHT22;4307;53.868;11.680;2022-08-01T06:51:20;20.10;99.90
8539;DHT22;4307;53.868;11.680;2022-08-01T06:53:47;20.10;99.90
8539;DHT22;4307;53.868;11.680;2022-08-01T06:56:14;20.10;99.90
8539;DHT22;4307;53.868;11.680;2022-08-01T06:58:40;20.10;99.90
8539;DHT22;4307;53.868;11.680;2022-08-01T07:01:08;20.10;99.90
8539;DHT22;4307;53.868;11.680;2022-08-01T07:03:36;20.10;99.90
8539;DHT22;4307;53.868;11.680;2022-08-01T07:06:03;20.20;99.90
8539;DHT22;4307;53.868;11.680;2022-08-01T07:08:29;20.30;99.90
8539;DHT22;4307;53.868;11.680;2022-08-01T07:10:56;20.30;99.90
8539;DHT22;4307;53.868;11.680;2022-08-01T07:13:25;20.30;99.90
8539;DHT22;4307;53.868;11.680;2022-08-01T07:15:52;20.40;99.90
8539;DHT22;4307;53.868;11.680;2022-08-01T07:18:20;20.40;99.90
8539;DHT22;4307;53.868;11.680;2022-08-01T07:20:47;20.50;99.90
8539;DHT22;4307;53.868;11.680;2022-08-01T07:23:14;20.50;99.90
8539;DHT22;4307;53.868;11.680;2022-08-01T07:25:40;20.50;99.90
8539;DHT22;4307;53.868;11.680;2022-08-01T07:28:07;20.50;99.90
8539;DHT22;4307;53.868;11.680;2022-08-01T07:30:34;20.50;99.90
8539;DHT22;4307;53.868;11.680;2022-08-01T07:33:02;20.50;99.90
8539;DHT22;4307;53.868;11.680;2022-08-01T07:35:30;20.50;99.90
8539;DHT22;4307;53.868;11.680;2022-08-01T07:37:56;20.60;99.90
8539;DHT22;4307;53.868;11.680;2022-08-01T07:40:23;20.60;99.90
8539;DHT22;4307;53.868;11.680;2022-08-01T07:42:49;20.60;99.90
8539;DHT22;4307;53.868;11.680;2022-08-01T07:45:16;20.50;99.90
8539;DHT22;4307;53.868;11.680;2022-08-01T07:47:43;20.50;99.90
8539;DHT22;4307;53.868;11.680;2022-08-01T07:50:10;20.50;99.90
8539;DHT22;4307;53.868;11.680;2022-08-01T07:52:39;20.40;99.90
8539;DHT22;4307;53.868;11.680;2022-08-01T07:55:07;20.40;99.90
8539;DHT22;4307;53.868;11.680;2022-08-01T07:57:34;20.40;99.90
8539;DHT22;4307;53.868;11.680;2022-08-01T08:00:02;20.50;99.90
8539;DHT22;4307;53.868;11.680;2022-08-01T08:02:30;20.60;99.90
8539;DHT22;4307;53.868;11.680;2022-08-01T08:04:57;20.70;99.90
8539;DHT22;4307;53.868;11.680;2022-08-01T08:07:23;20.70;99.90
8539;DHT22;4307;53.868;11.680;2022-08-01T08:09:51;20.80;99.90
8539;DHT22;4307;53.868;11.680;2022-08-01T08:12:18;20.90;99.90
8539;DHT22;4307;53.868;11.680;2022-08-01T08:14:45;20.90;99.90
8539;DHT22;4307;53.868;11.680;2022-08-01T08:17:11;20.90;99.90
8539;DHT22;4307;53.868;11.680;2022-08-01T08:19:38;20.80;99.90
8539;DHT22;4307;53.868;11.680;2022-08-01T08:22:06;20.80;99.90
8539;DHT22;4307;53.868;11.680;2022-08-01T08:24:33;20.70;99.90
8539;DHT22;4307;53.868;11.680;2022-08-01T08:27:02;20.60;99.90
8539;DHT22;4307;53.868;11.680;2022-08-01T08:29:30;20.50;99.90
8539;DHT22;4307;53.868;11.680;2022-08-01T08:31:58;20.30;99.90
8539;DHT22;4307;53.868;11.680;2022-08-01T08:34:26;20.20;99.90
8539;DHT22;4307;53.868;11.680;2022-08-01T08:36:55;20.10;99.90
8539;DHT22;4307;53.868;11.680;2022-08-01T08:39:22;20.10;99.90
8539;DHT22;4307;53.868;11.680;2022-08-01T08:41:50;20.00;99.90
8539;DHT22;4307;53.868;11.680;2022-08-01T08:44:18;20.00;99.90
8539;DHT22;4307;53.868;11.680;2022-08-01T08:46:48;20.00;99.90
8539;DHT22;4307;53.868;11.680;2022-08-01T08:49:18;20.10;99.90
8539;DHT22;4307;53.868;11.680;2022-08-01T08:51:47;20.20;99.90
8539;DHT22;4307;53.868;11.680;2022-08-01T08:54:16;20.20;99.90
8539;DHT22;4307;53.868;11.680;2022-08-01T08:56:43;20.30;99.90
8539;DHT22;4307;53.868;11.680;2022-08-01T08:59:11;20.40;99.90
8539;DHT22;4307;53.868;11.680;2022-08-01T09:01:41;20.60;99.90
8539;DHT22;4307;53.868;11.680;2022-08-01T09:04:09;20.70;99.90
8539;DHT22;4307;53.868;11.680;2022-08-01T09:06:37;20.80;99.90
8539;DHT22;4307;53.868;11.680;2022-08-01T09:09:05;20.90;99.90
8539;DHT22;4307;53.868;11.680;2022-08-01T09:11:32;21.00;99.90
8539;DHT22;4307;53.868;11.680;2022-08-01T09:14:05;21.10;99.90
8539;DHT22;4307;53.868;11.680;2022-08-01T09:16:32;21.20;99.90
8539;DHT22;4307;53.868;11.680;2022-08-01T09:19:12;21.20;99.90
8539;DHT22;4307;53.868;11.680;2022-08-01T09:21:39;21.30;99.90
8539;DHT22;4307;53.868;11.680;2022-08-01T09:24:14;21.30;99.90
8539;DHT22;4307;53.868;11.680;2022-08-01T09:26:42;21.40;99.90
8539;DHT22;4307;53.868;11.680;2022-08-01T09:29:18;21.50;99.90
8539;DHT22;4307;53.868;11.680;2022-08-01T09:31:46;21.60;99.90
8539;DHT22;4307;53.868;11.680;2022-08-01T09:34:15;21.70;99.90
8539;DHT22;4307;53.868;11.680;2022-08-01T09:36:49;21.70;99.90
8539;DHT22;4307;53.868;11.680;2022-08-01T09:39:22;21.70;99.90
8539;DHT22;4307;53.868;11.680;2022-08-01T09:41:49;21.70;99.90
8539;DHT22;4307;53.868;11.680;2022-08-01T09:44:17;21.70;99.90
8539;DHT22;4307;53.868;11.680;2022-08-01T09:46:50;21.70;99.90
8539;DHT22;4307;53.868;11.680;2022-08-01T09:49:27;21.60;99.90
8539;DHT22;4307;53.868;11.680;2022-08-01T09:51:55;21.40;99.90
8539;DHT22;4307;53.868;11.680;2022-08-01T09:54:29;21.20;99.90
8539;DHT22;4307;53.868;11.680;2022-08-01T09:57:11;21.10;99.90
8539;DHT22;4307;53.868;11.680;2022-08-01T09:59:39;21.10;99.90
8539;DHT22;4307;53.868;11.680;2022-08-01T10:02:08;21.00;99.90
8539;DHT22;4307;53.868;11.680;2022-08-01T10:04:37;21.00;99.90
8539;DHT22;4307;53.868;11.680;2022-08-01T10:07:06;21.00;99.90
8539;DHT22;4307;53.868;11.680;2022-08-01T10:09:35;21.00;99.90
8539;DHT22;4307;53.868;11.680;2022-08-01T10:12:03;21.00;99.90
8539;DHT22;4307;53.868;11.680;2022-08-01T10:14:31;21.00;99.90
8539;DHT22;4307;53.868;11.680;2022-08-01T10:17:00;20.90;99.90
8539;DHT22;4307;53.868;11.680;2022-08-01T10:19:29;20.90;99.90
8539;DHT22;4307;53.868;11.680;2022-08-01T10:22:00;20.90;99.90
8539;DHT22;4307;53.868;11.680;2022-08-01T10:24:29;20.80;99.90
8539;DHT22;4307;53.868;11.680;2022-08-01T10:26:58;20.80;99.90
8539;DHT22;4307;53.868;11.680;2022-08-01T10:29:33;20.90;99.90
8539;DHT22;4307;53.868;11.680;2022-08-01T10:32:01;20.90;99.90
8539;DHT22;4307;53.868;11.680;2022-08-01T10:34:27;20.80;99.90
8539;DHT22;4307;53.868;11.680;2022-08-01T10:36:56;20.70;99.90
8539;DHT22;4307;53.868;11.680;2022-08-01T10:39:24;20.70;99.90
8539;DHT22;4307;53.868;11.680;2022-08-01T10:41:54;20.70;99.90
8539;DHT22;4307;53.868;11.680;2022-08-01T10:44:22;20.90;99.90
8539;DHT22;4307;53.868;11.680;2022-08-01T10:46:50;21.10;99.90
8539;DHT22;4307;53.868;11.680;2022-08-01T10:49:20;21.30;99.90
8539;DHT22;4307;53.868;11.680;2022-08-01T10:51:48;21.60;99.90
8539;DHT22;4307;53.868;11.680;2022-08-01T10:54:15;21.90;99.90
8539;DHT22;4307;53.868;11.680;2022-08-01T10:56:45;22.10;99.90
8539;DHT22;4307;53.868;11.680;2022-08-01T10:59:15;22.30;99.90
8539;DHT22;4307;53.868;11.680;2022-08-01T11:01:42;22.40;99.90
8539;DHT22;4307;53.868;11.680;2022-08-01T11:04:09;22.60;99.90
8539;DHT22;4307;53.868;11.680;2022-08-01T11:06:41;22.70;99.90
8539;DHT22;4307;53.868;11.680;2022-08-01T11:09:24;22.70;99.90
8539;DHT22;4307;53.868;11.680;2022-08-01T11:12:01;22.70;99.90
8539;DHT22;4307;53.868;11.680;2022-08-01T11:14:29;22.70;99.90
8539;DHT22;4307;53.868;11.680;2022-08-01T11:16:56;22.70;99.90
8539;DHT22;4307;53.868;11.680;2022-08-01T11:19:22;22.70;99.90
8539;DHT22;4307;53.868;11.680;2022-08-01T11:21:59;22.60;99.90
8539;DHT22;4307;53.868;11.680;2022-08-01T11:24:55;22.50;99.90
8539;DHT22;4307;53.868;11.680;2022-08-01T11:27:29;22.40;99.90
8539;DHT22;4307;53.868;11.680;2022-08-01T11:30:24;22.20;99.90
8539;DHT22;4307;53.868;11.680;2022-08-01T11:32:56;22.10;99.90
8539;DHT22;4307;53.868;11.680;2022-08-01T11:35:23;22.00;99.90
8539;DHT22;4307;53.868;11.680;2022-08-01T11:37:52;22.00;99.90
8539;DHT22;4307;53.868;11.680;2022-08-01T11:40:23;21.90;99.90
8539;DHT22;4307;53.868;11.680;2022-08-01T11:43:20;21.90;99.90
8539;DHT22;4307;53.868;11.680;2022-08-01T11:45:47;21.90;99.90
8539;DHT22;4307;53.868;11.680;2022-08-01T11:48:18;22.00;99.90
8539;DHT22;4307;53.868;11.680;2022-08-01T11:50:45;22.20;99.90
8539;DHT22;4307;53.868;11.680;2022-08-01T11:53:12;22.50;99.90
8539;DHT22;4307;53.868;11.680;2022-08-01T11:55:45;23.10;99.90
8539;DHT22;4307;53.868;11.680;2022-08-01T11:58:14;23.60;99.90
8539;DHT22;4307;53.868;11.680;2022-08-01T12:00:42;23.90;99.90
8539;DHT22;4307;53.868;11.680;2022-08-01T12:03:16;24.00;99.90
8539;DHT22;4307;53.868;11.680;2022-08-01T12:05:43;24.40;99.90
8539;DHT22;4307;53.868;11.680;2022-08-01T12:08:10;25.30;99.90
8539;DHT22;4307;53.868;11.680;2022-08-01T12:10:37;26.00;99.90
8539;DHT22;4307;53.868;11.680;2022-08-01T12:13:06;26.70;99.90
8539;DHT22;4307;53.868;11.680;2022-08-01T12:15:35;27.40;99.90
8539;DHT22;4307;53.868;11.680;2022-08-01T12:18:04;28.00;99.40
8539;DHT22;4307;53.868;11.680;2022-08-01T12:20:32;28.50;97.40
8539;DHT22;4307;53.868;11.680;2022-08-01T12:23:01;28.90;95.00
8539;DHT22;4307;53.868;11.680;2022-08-01T12:25:28;29.30;92.90
8539;DHT22;4307;53.868;11.680;2022-08-01T12:27:59;29.70;91.80
8539;DHT22;4307;53.868;11.680;2022-08-01T12:30:26;30.00;90.00
8539;DHT22;4307;53.868;11.680;2022-08-01T12:32:54;30.20;88.00
8539;DHT22;4307;53.868;11.680;2022-08-01T12:35:22;30.30;86.10
8539;DHT22;4307;53.868;11.680;2022-08-01T12:37:51;30.50;85.00
8539;DHT22;4307;53.868;11.680;2022-08-01T12:40:19;30.80;83.60
8539;DHT22;4307;53.868;11.680;2022-08-01T12:42:48;31.10;81.90
8539;DHT22;4307;53.868;11.680;2022-08-01T12:45:18;31.40;80.50
8539;DHT22;4307;53.868;11.680;2022-08-01T12:47:46;31.60;79.90
8539;DHT22;4307;53.868;11.680;2022-08-01T12:50:19;31.80;78.20
8539;DHT22;4307;53.868;11.680;2022-08-01T12:52:46;32.00;76.30
8539;DHT22;4307;53.868;11.680;2022-08-01T12:55:15;32.20;75.20
8539;DHT22;4307;53.868;11.680;2022-08-01T12:57:45;32.30;73.70
8539;DHT22;4307;53.868;11.680;2022-08-01T13:00:23;32.40;73.90
8539;DHT22;4307;53.868;11.680;2022-08-01T13:03:00;32.60;71.70
8539;DHT22;4307;53.868;11.680;2022-08-01T13:05:40;32.70;70.80
8539;DHT22;4307;53.868;11.680;2022-08-01T13:08:10;32.60;69.50
8539;DHT22;4307;53.868;11.680;2022-08-01T13:10:36;32.80;69.20
8539;DHT22;4307;53.868;11.680;2022-08-01T13:13:03;32.70;68.10
8539;DHT22;4307;53.868;11.680;2022-08-01T13:15:32;32.50;68.00
8539;DHT22;4307;53.868;11.680;2022-08-01T13:18:01;32.40;68.40
8539;DHT22;4307;53.868;11.680;2022-08-01T13:20:32;32.50;68.20
8539;DHT22;4307;53.868;11.680;2022-08-01T13:23:13;32.70;67.70
8539;DHT22;4307;53.868;11.680;2022-08-01T13:25:47;32.80;66.70
8539;DHT22;4307;53.868;11.680;2022-08-01T13:28:15;32.80;66.50
8539;DHT22;4307;53.868;11.680;2022-08-01T13:30:54;32.70;66.70
8539;DHT22;4307;53.868;11.680;2022-08-01T13:33:21;32.70;66.70
8539;DHT22;4307;53.868;11.680;2022-08-01T13:35:51;32.40;66.80
8539;DHT22;4307;53.868;11.680;2022-08-01T13:38:18;31.80;66.60
8539;DHT22;4307;53.868;11.680;2022-08-01T13:40:45;31.10;67.30
8539;DHT22;4307;53.868;11.680;2022-08-01T13:43:12;30.40;68.10
8539;DHT22;4307;53.868;11.680;2022-08-01T13:45:40;29.80;69.20
8539;DHT22;4307;53.868;11.680;2022-08-01T13:48:07;29.20;70.00
8539;DHT22;4307;53.868;11.680;2022-08-01T13:50:33;28.80;70.70
8539;DHT22;4307;53.868;11.680;2022-08-01T13:53:01;28.50;71.30
8539;DHT22;4307;53.868;11.680;2022-08-01T13:55:28;28.20;72.00
8539;DHT22;4307;53.868;11.680;2022-08-01T13:57:55;27.80;72.50
8539;DHT22;4307;53.868;11.680;2022-08-01T14:00:21;27.60;73.20
8539;DHT22;4307;53.868;11.680;2022-08-01T14:02:48;27.40;74.10
8539;DHT22;4307;53.868;11.680;2022-08-01T14:05:15;27.20;74.90
8539;DHT22;4307;53.868;11.680;2022-08-01T14:07:41;27.00;75.50
8539;DHT22;4307;53.868;11.680;2022-08-01T14:10:11;26.70;75.80
8539;DHT22;4307;53.868;11.680;2022-08-01T14:12:38;26.60;76.40
8539;DHT22;4307;53.868;11.680;2022-08-01T14:15:05;26.50;76.90
8539;DHT22;4307;53.868;11.680;2022-08-01T14:17:32;26.30;77.60
8539;DHT22;4307;53.868;11.680;2022-08-01T14:19:59;26.20;78.40
8539;DHT22;4307;53.868;11.680;2022-08-01T14:22:26;26.10;78.30
8539;DHT22;4307;53.868;11.680;2022-08-01T14:24:52;26.00;78.70
8539;DHT22;4307;53.868;11.680;2022-08-01T14:27:20;25.90;78.90
8539;DHT22;4307;53.868;11.680;2022-08-01T14:29:47;25.80;78.80
8539;DHT22;4307;53.868;11.680;2022-08-01T14:32:14;25.80;79.10
8539;DHT22;4307;53.868;11.680;2022-08-01T14:34:40;25.80;79.20
8539;DHT22;4307;53.868;11.680;2022-08-01T14:37:07;25.70;79.10
8539;DHT22;4307;53.868;11.680;2022-08-01T14:39:34;25.70;79.10
8539;DHT22;4307;53.868;11.680;2022-08-01T14:42:00;25.50;78.90
8539;DHT22;4307;53.868;11.680;2022-08-01T14:44:28;25.40;79.00
8539;DHT22;4307;53.868;11.680;2022-08-01T14:46:55;25.30;79.30
8539;DHT22;4307;53.868;11.680;2022-08-01T14:49:21;25.20;79.70
8539;DHT22;4307;53.868;11.680;2022-08-01T14:51:48;25.10;79.90
8539;DHT22;4307;53.868;11.680;2022-08-01T14:54:15;25.10;80.10
8539;DHT22;4307;53.868;11.680;2022-08-01T14:56:41;25.00;80.00
8539;DHT22;4307;53.868;11.680;2022-08-01T14:59:08;25.10;80.30
8539;DHT22;4307;53.868;11.680;2022-08-01T15:01:36;25.10;80.30
8539;DHT22;4307;53.868;11.680;2022-08-01T15:04:03;25.10;80.40
8539;DHT22;4307;53.868;11.680;2022-08-01T15:06:29;25.10;80.20
8539;DHT22;4307;53.868;11.680;2022-08-01T15:08:56;25.10;79.80
8539;DHT22;4307;53.868;11.680;2022-08-01T15:11:23;25.00;79.60
8539;DHT22;4307;53.868;11.680;2022-08-01T15:13:49;24.90;79.70
8539;DHT22;4307;53.868;11.680;2022-08-01T15:16:37;24.90;80.20
8539;DHT22;4307;53.868;11.680;2022-08-01T15:19:04;24.90;80.00
8539;DHT22;4307;53.868;11.680;2022-08-01T15:21:31;24.90;79.80
8539;DHT22;4307;53.868;11.680;2022-08-01T15:23:58;24.80;79.80
8539;DHT22;4307;53.868;11.680;2022-08-01T15:26:25;24.70;79.70
8539;DHT22;4307;53.868;11.680;2022-08-01T15:28:52;24.70;80.00
8539;DHT22;4307;53.868;11.680;2022-08-01T15:31:19;24.60;79.80
8539;DHT22;4307;53.868;11.680;2022-08-01T15:33:47;24.60;80.00
8539;DHT22;4307;53.868;11.680;2022-08-01T15:36:14;24.60;81.00
8539;DHT22;4307;53.868;11.680;2022-08-01T15:38:40;24.60;80.20
8539;DHT22;4307;53.868;11.680;2022-08-01T15:41:07;24.60;79.80
8539;DHT22;4307;53.868;11.680;2022-08-01T15:43:34;24.50;79.80
8539;DHT22;4307;53.868;11.680;2022-08-01T15:46:00;24.40;79.60
8539;DHT22;4307;53.868;11.680;2022-08-01T15:48:27;24.30;79.60
8539;DHT22;4307;53.868;11.680;2022-08-01T15:50:55;24.20;79.90
8539;DHT22;4307;53.868;11.680;2022-08-01T15:53:22;24.20;80.00
8539;DHT22;4307;53.868;11.680;2022-08-01T15:55:48;24.10;80.00